Time;durP1;ratioP1;P1;durP2;ratioP2;P2;SDS_P1;SDS_P2;PMS_P1;PMS_P2;Temp;Humidity;BMP_temperature;BMP_pressure;BME280_temperature;BME280_humidity;BME280_pressure;Samples;Min_cycle;Max_cycle;Signal;HPM_P1;HPM_P2
2023/09/30 00:01:00;;;;;;;10.52;2.85;;;12.10;99.90;;;;;;5060357;28;20048;-67
2023/09/30 00:03:26;;;;;;;9.75;2.63;;;12.10;99.90;;;;;;5050893;28;20038;-67
2023/09/30 00:05:51;;;;;;;12.25;3.17;;;12.10;99.90;;;;;;5060335;28;20441;-67
2023/09/30 00:08:17;;;;;;;10.90;2.53;;;12.10;99.90;;;;;;4995756;28;20040;-67
2023/09/30 00:10:42;;;;;;;12.55;2.92;;;12.10;99.90;;;;;;5045133;28;20046;-67
2023/09/30 00:13:08;;;;;;;13.55;2.75;;;12.00;99.90;;;;;;5066535;28;20463;-67
2023/09/30 00:15:34;;;;;;;9.07;2.28;;;12.00;99.90;;;;;;5066791;28;20044;-67
2023/09/30 00:18:01;;;;;;;12.88;2.55;;;12.00;99.90;;;;;;4998097;28;20077;-68
2023/09/30 00:20:27;;;;;;;9.77;2.40;;;12.00;99.90;;;;;;5064861;28;20052;-67
2023/09/30 00:22:52;;;;;;;10.27;2.55;;;12.00;99.90;;;;;;5003457;28;20091;-67
2023/09/30 00:25:18;;;;;;;10.63;2.53;;;11.90;99.90;;;;;;5063496;28;20049;-67
2023/09/30 00:27:44;;;;;;;7.03;2.28;;;11.90;99.90;;;;;;5062320;28;20053;-67
2023/09/30 00:30:10;;;;;;;7.80;2.33;;;11.90;99.90;;;;;;5065581;28;20550;-67
2023/09/30 00:32:36;;;;;;;9.77;1.55;;;11.80;99.90;;;;;;5051325;28;20066;-67
2023/09/30 00:35:02;;;;;;;5.18;2.28;;;11.90;99.90;;;;;;5065138;28;20454;-68
2023/09/30 00:37:28;;;;;;;10.77;2.92;;;11.80;99.90;;;;;;5063731;28;20094;-67
2023/09/30 00:39:53;;;;;;;12.95;2.75;;;11.80;99.90;;;;;;5060968;28;20442;-68
2023/09/30 00:42:20;;;;;;;8.43;2.70;;;11.80;99.90;;;;;;5070603;28;20050;-68
2023/09/30 00:44:46;;;;;;;5.43;1.63;;;11.90;99.90;;;;;;4999111;28;20052;-68
2023/09/30 00:47:14;;;;;;;6.68;2.08;;;11.90;99.90;;;;;;5001034;28;21086;-68
2023/09/30 00:49:42;;;;;;;8.10;2.17;;;11.80;99.90;;;;;;5064049;28;20094;-68
2023/09/30 00:52:07;;;;;;;11.02;2.65;;;11.80;99.90;;;;;;5072321;28;20092;-67
2023/09/30 00:54:35;;;;;;;5.88;2.33;;;11.80;99.90;;;;;;4999880;28;20082;-67
2023/09/30 00:57:01;;;;;;;6.72;2.20;;;11.80;99.90;;;;;;5067037;28;20045;-67
2023/09/30 00:59:28;;;;;;;6.43;2.10;;;11.80;99.90;;;;;;5065055;28;20140;-67
2023/09/30 01:01:57;;;;;;;8.77;2.70;;;11.80;99.90;;;;;;5067392;28;20052;-68
2023/09/30 01:04:23;;;;;;;6.35;1.70;;;11.80;99.90;;;;;;5062859;28;20091;-67
2023/09/30 01:06:48;;;;;;;9.70;2.58;;;11.80;99.90;;;;;;5066816;28;20042;-67
2023/09/30 01:09:14;;;;;;;11.93;2.90;;;11.80;99.90;;;;;;5001363;28;20484;-67
2023/09/30 01:11:40;;;;;;;9.50;2.88;;;11.90;99.90;;;;;;5066061;28;20050;-67
2023/09/30 01:14:26;;;;;;;9.25;2.65;;;11.80;99.90;;;;;;5066031;28;20038;-67
2023/09/30 01:16:52;;;;;;;;;;;11.80;99.90;;;;;;5073347;28;20129;-68
2023/09/30 01:19:18;;;;;;;7.32;2.40;;;11.80;99.90;;;;;;5069577;28;20462;-68
2023/09/30 01:21:48;;;;;;;9.90;3.80;;;11.80;99.90;;;;;;5004671;28;20039;-68
2023/09/30 01:24:16;;;;;;;9.38;3.03;;;11.90;99.90;;;;;;5071177;28;20442;-67
2023/09/30 01:26:42;;;;;;;8.90;2.88;;;11.90;99.90;;;;;;5069952;28;20074;-68
2023/09/30 01:29:10;;;;;;;8.15;3.40;;;12.00;99.90;;;;;;5068246;28;20045;-68
2023/09/30 01:31:39;;;;;;;14.63;3.67;;;11.90;99.90;;;;;;5069418;28;20046;-68
2023/09/30 01:34:05;;;;;;;12.50;3.22;;;12.00;99.90;;;;;;5069325;28;20043;-67
2023/09/30 01:36:31;;;;;;;16.45;4.45;;;12.00;99.90;;;;;;5069773;28;20041;-68
2023/09/30 01:38:57;;;;;;;16.02;4.28;;;12.00;99.90;;;;;;5050249;28;20053;-68
2023/09/30 01:41:23;;;;;;;10.10;3.58;;;12.10;99.90;;;;;;5068601;28;20380;-68
2023/09/30 01:43:49;;;;;;;14.52;4.18;;;12.10;99.90;;;;;;5066813;28;20057;-68
2023/09/30 01:46:14;;;;;;;11.13;3.42;;;12.10;99.90;;;;;;5065117;28;20042;-68
2023/09/30 01:48:40;;;;;;;10.85;3.35;;;12.10;99.90;;;;;;5000975;28;20045;-68
2023/09/30 01:51:06;;;;;;;11.25;3.47;;;12.10;99.90;;;;;;5068260;28;20044;-68
2023/09/30 01:53:32;;;;;;;11.27;4.05;;;12.10;99.90;;;;;;5064707;28;20104;-68
2023/09/30 01:55:58;;;;;;;14.85;4.05;;;12.10;99.90;;;;;;5067098;28;20037;-68
2023/09/30 01:58:24;;;;;;;13.70;3.72;;;12.10;99.90;;;;;;5044266;28;20041;-68
2023/09/30 02:00:50;;;;;;;11.32;3.20;;;12.10;99.90;;;;;;5069552;28;20125;-68
2023/09/30 02:03:17;;;;;;;11.98;3.72;;;12.10;99.90;;;;;;5064461;28;20523;-68
2023/09/30 02:05:42;;;;;;;9.27;3.25;;;12.10;99.90;;;;;;5062889;28;20479;-68
2023/09/30 02:08:08;;;;;;;12.90;3.58;;;12.10;99.90;;;;;;4997004;28;20053;-68
2023/09/30 02:10:34;;;;;;;13.75;4.53;;;12.00;99.90;;;;;;5062702;28;20034;-68
2023/09/30 02:13:00;;;;;;;17.05;3.85;;;12.00;99.90;;;;;;4999046;28;20038;-68
2023/09/30 02:15:26;;;;;;;11.18;3.47;;;12.10;99.90;;;;;;5000587;28;20399;-68
2023/09/30 02:17:52;;;;;;;10.98;3.65;;;12.00;99.90;;;;;;4998124;28;20042;-67
2023/09/30 02:20:19;;;;;;;12.23;3.95;;;12.00;99.90;;;;;;4997332;28;20042;-68
2023/09/30 02:22:47;;;;;;;8.80;3.38;;;12.00;99.90;;;;;;5044024;28;20073;-68
2023/09/30 02:25:12;;;;;;;9.43;3.30;;;12.00;99.90;;;;;;5062142;28;20046;-68
2023/09/30 02:27:41;;;;;;;12.75;3.53;;;12.00;99.90;;;;;;5065815;28;20057;-68
2023/09/30 02:30:10;;;;;;;9.05;3.30;;;12.00;99.90;;;;;;5068583;28;20579;-67
2023/09/30 02:32:38;;;;;;;10.82;3.28;;;11.90;99.90;;;;;;4998653;28;20038;-67
2023/09/30 02:35:06;;;;;;;9.90;3.30;;;11.90;99.90;;;;;;5067132;28;20056;-68
2023/09/30 02:37:35;;;;;;;10.18;3.63;;;11.90;99.90;;;;;;4996743;28;20542;-68
2023/09/30 02:40:04;;;;;;;9.30;3.67;;;11.90;99.90;;;;;;4995301;28;20064;-68
2023/09/30 02:42:29;;;;;;;8.90;3.53;;;11.90;99.90;;;;;;4998738;28;20056;-67
2023/09/30 02:44:55;;;;;;;10.43;3.08;;;12.00;99.90;;;;;;5068341;28;20034;-68
2023/09/30 02:47:20;;;;;;;13.52;3.65;;;12.00;99.90;;;;;;5070435;28;20579;-67
2023/09/30 02:49:46;;;;;;;10.82;3.60;;;12.00;99.90;;;;;;5068322;28;20088;-68
2023/09/30 02:52:12;;;;;;;12.18;4.15;;;12.00;99.90;;;;;;5000640;28;20038;-67
2023/09/30 02:54:38;;;;;;;10.02;4.07;;;11.90;99.90;;;;;;5071971;28;20042;-68
2023/09/30 02:57:03;;;;;;;12.98;3.50;;;12.00;99.90;;;;;;5069628;28;20108;-68
2023/09/30 02:59:29;;;;;;;12.57;3.38;;;11.90;99.90;;;;;;5001564;28;20038;-68
2023/09/30 03:01:56;;;;;;;13.45;4.90;;;11.90;99.90;;;;;;5065840;28;20655;-68
2023/09/30 03:04:25;;;;;;;10.18;4.22;;;11.90;99.90;;;;;;5066624;28;20084;-67
2023/09/30 03:06:51;;;;;;;12.00;3.53;;;11.90;99.90;;;;;;5067072;28;20488;-67
2023/09/30 03:09:17;;;;;;;13.10;4.10;;;11.90;99.90;;;;;;4998922;28;20044;-68
2023/09/30 03:11:43;;;;;;;12.48;4.18;;;11.90;99.90;;;;;;5002605;28;20644;-67
2023/09/30 03:14:11;;;;;;;10.27;3.88;;;11.90;99.90;;;;;;5065978;28;20521;-67
2023/09/30 03:16:38;;;;;;;12.23;4.35;;;12.00;99.90;;;;;;5001794;28;20850;-68
2023/09/30 03:19:08;;;;;;;13.38;3.60;;;12.00;99.90;;;;;;4997059;28;21520;-68
2023/09/30 03:21:35;;;;;;;8.75;3.33;;;12.00;99.90;;;;;;5001702;28;20053;-67
2023/09/30 03:24:04;;;;;;;9.73;3.60;;;12.00;99.90;;;;;;5063175;28;20997;-67
2023/09/30 03:26:30;;;;;;;12.77;3.95;;;12.00;99.90;;;;;;5068117;28;20046;-67
2023/09/30 03:28:56;;;;;;;16.05;4.55;;;12.00;99.90;;;;;;5065000;28;20045;-67
2023/09/30 03:31:22;;;;;;;14.18;4.18;;;12.00;99.90;;;;;;5002133;28;20403;-67
2023/09/30 03:33:51;;;;;;;12.70;4.05;;;12.10;99.90;;;;;;4999125;28;20610;-67
2023/09/30 03:36:18;;;;;;;7.35;3.15;;;12.00;99.90;;;;;;5065001;28;20042;-68
2023/09/30 03:38:44;;;;;;;14.82;3.72;;;12.00;99.90;;;;;;5065664;28;20084;-68
2023/09/30 03:41:12;;;;;;;11.50;3.63;;;12.10;99.90;;;;;;5065480;28;20038;-68
2023/09/30 03:43:41;;;;;;;9.32;3.40;;;12.00;99.90;;;;;;5066426;28;20136;-68
2023/09/30 03:46:07;;;;;;;14.32;4.25;;;12.00;99.90;;;;;;5000863;28;20034;-67
2023/09/30 03:48:39;;;;;;;12.20;3.95;;;12.00;99.90;;;;;;5067987;28;20030;-67
2023/09/30 03:51:09;;;;;;;12.13;4.60;;;12.00;99.90;;;;;;5064116;28;20514;-67
2023/09/30 03:53:34;;;;;;;12.18;4.45;;;12.00;99.90;;;;;;5063026;28;20060;-67
2023/09/30 03:56:00;;;;;;;16.38;5.43;;;12.00;99.90;;;;;;4998222;28;20042;-67
2023/09/30 03:58:26;;;;;;;10.27;4.07;;;12.00;99.90;;;;;;4999007;28;20065;-68
2023/09/30 04:00:51;;;;;;;9.50;3.67;;;12.00;99.90;;;;;;5062365;28;20042;-68
2023/09/30 04:03:17;;;;;;;10.60;4.25;;;12.00;99.90;;;;;;5060620;28;20087;-67
2023/09/30 04:05:43;;;;;;;9.80;4.18;;;11.90;99.90;;;;;;4998188;28;20030;-68
2023/09/30 04:08:08;;;;;;;10.85;3.20;;;12.00;99.90;;;;;;4996323;28;20054;-68
2023/09/30 04:10:34;;;;;;;6.60;3.67;;;11.90;99.90;;;;;;4996666;28;20403;-68
2023/09/30 04:13:00;;;;;;;11.23;3.95;;;11.90;99.90;;;;;;5049265;28;20048;-68
2023/09/30 04:15:25;;;;;;;6.53;3.53;;;11.90;99.90;;;;;;5061487;28;20083;-68
2023/09/30 04:17:52;;;;;;;10.88;3.92;;;11.90;99.90;;;;;;5061512;28;20049;-68
2023/09/30 04:20:22;;;;;;;9.35;4.38;;;11.90;99.90;;;;;;5061598;28;20404;-67
2023/09/30 04:22:49;;;;;;;8.27;3.70;;;11.90;99.90;;;;;;5043975;28;20033;-68
2023/09/30 04:25:18;;;;;;;11.55;4.35;;;11.90;99.90;;;;;;5065205;28;20050;-68
2023/09/30 04:27:44;;;;;;;11.02;4.20;;;11.90;99.90;;;;;;5003417;28;20262;-67
2023/09/30 04:30:10;;;;;;;9.73;4.50;;;12.00;99.90;;;;;;4999554;28;20525;-68
2023/09/30 04:32:38;;;;;;;11.88;4.75;;;11.90;99.90;;;;;;5066707;28;20061;-68
2023/09/30 04:35:08;;;;;;;10.85;3.83;;;11.90;99.90;;;;;;5000041;28;20506;-67
2023/09/30 04:37:34;;;;;;;9.60;4.20;;;11.90;99.90;;;;;;5052388;28;20038;-67
2023/09/30 04:39:59;;;;;;;9.15;4.07;;;11.90;99.90;;;;;;5063625;28;20049;-67
2023/09/30 04:42:25;;;;;;;14.88;5.10;;;11.90;99.90;;;;;;5069468;28;20388;-67
2023/09/30 04:44:52;;;;;;;11.82;4.22;;;12.00;99.90;;;;;;5064458;28;20050;-68
2023/09/30 04:47:18;;;;;;;14.90;4.82;;;12.00;99.90;;;;;;5067698;28;20076;-68
2023/09/30 04:49:44;;;;;;;10.65;4.57;;;11.90;99.90;;;;;;5064845;28;20185;-68
2023/09/30 04:52:10;;;;;;;12.57;4.95;;;11.90;99.90;;;;;;5012209;28;20077;-68
2023/09/30 04:54:35;;;;;;;12.60;4.93;;;11.90;99.90;;;;;;5067415;28;20068;-68
2023/09/30 04:57:02;;;;;;;10.80;4.85;;;12.00;99.90;;;;;;5001637;28;20049;-67
2023/09/30 04:59:28;;;;;;;8.45;3.67;;;12.00;99.90;;;;;;5064166;28;20050;-67
2023/09/30 05:01:54;;;;;;;12.82;4.75;;;11.90;99.90;;;;;;5005756;28;20102;-68
2023/09/30 05:04:20;;;;;;;12.73;4.70;;;12.00;99.90;;;;;;5062699;28;20480;-68
2023/09/30 05:06:46;;;;;;;14.00;5.60;;;11.90;99.90;;;;;;4999975;28;20053;-68
2023/09/30 05:09:12;;;;;;;16.63;5.97;;;12.00;99.90;;;;;;5003616;28;20060;-67
2023/09/30 05:11:38;;;;;;;11.32;4.90;;;12.00;99.90;;;;;;4998671;28;20152;-67
2023/09/30 05:14:05;;;;;;;10.25;4.90;;;12.00;99.90;;;;;;5066436;28;20179;-67
2023/09/30 05:16:31;;;;;;;13.60;5.28;;;12.10;99.90;;;;;;5079006;28;20061;-68
2023/09/30 05:18:57;;;;;;;12.30;5.70;;;12.10;99.90;;;;;;5064899;28;20046;-68
2023/09/30 05:21:23;;;;;;;10.82;5.25;;;12.10;99.90;;;;;;5064549;28;20056;-68
2023/09/30 05:23:49;;;;;;;13.43;5.68;;;12.10;99.90;;;;;;5068002;28;20050;-68
2023/09/30 05:26:15;;;;;;;11.68;5.35;;;12.10;99.90;;;;;;5064233;28;20046;-67
2023/09/30 05:28:42;;;;;;;10.57;5.45;;;12.00;99.90;;;;;;5064898;28;20380;-67
2023/09/30 05:31:08;;;;;;;10.32;5.53;;;12.00;99.90;;;;;;5066549;28;20132;-67
2023/09/30 05:33:33;;;;;;;13.10;6.85;;;12.00;99.90;;;;;;4998998;28;20121;-68
2023/09/30 05:36:02;;;;;;;10.70;5.97;;;12.00;99.90;;;;;;5066624;28;20034;-67
2023/09/30 05:38:29;;;;;;;11.77;6.15;;;12.00;99.90;;;;;;4996990;28;20045;-67
2023/09/30 05:40:55;;;;;;;11.60;6.18;;;12.00;99.90;;;;;;5064590;28;20081;-68
2023/09/30 05:43:21;;;;;;;16.27;6.93;;;11.90;99.90;;;;;;5056977;28;20120;-67
2023/09/30 05:45:54;;;;;;;11.70;6.63;;;12.00;99.90;;;;;;5060839;28;20080;-68
2023/09/30 05:48:22;;;;;;;16.08;6.05;;;12.00;99.90;;;;;;5059486;28;20046;-68
2023/09/30 05:50:48;;;;;;;10.88;6.18;;;11.90;99.90;;;;;;5059327;28;20126;-68
2023/09/30 05:53:14;;;;;;;14.90;6.38;;;12.00;99.90;;;;;;4990478;28;20129;-68
2023/09/30 05:55:45;;;;;;;12.40;6.80;;;11.90;99.90;;;;;;5060896;28;20069;-67
2023/09/30 05:58:13;;;;;;;13.77;7.40;;;12.00;99.90;;;;;;5059366;28;20496;-67
2023/09/30 06:00:42;;;;;;;11.95;6.43;;;12.00;99.90;;;;;;5055283;28;20131;-67
2023/09/30 06:03:10;;;;;;;15.95;7.70;;;12.00;99.90;;;;;;5078104;28;20069;-67
2023/09/30 06:05:40;;;;;;;13.07;7.05;;;11.90;99.90;;;;;;5067759;28;20046;-68
2023/09/30 06:08:10;;;;;;;13.25;6.82;;;11.90;99.90;;;;;;5000742;28;20046;-67
2023/09/30 06:10:38;;;;;;;17.25;6.60;;;11.90;99.90;;;;;;5065998;28;20048;-67
2023/09/30 06:13:04;;;;;;;13.98;6.55;;;11.90;99.90;;;;;;4999575;28;20106;-67
2023/09/30 06:15:31;;;;;;;16.95;7.63;;;12.10;99.90;;;;;;5050400;28;20042;-67
2023/09/30 06:17:57;;;;;;;12.15;6.90;;;12.40;99.90;;;;;;5066414;28;20574;-67
2023/09/30 06:20:26;;;;;;;13.88;6.32;;;12.80;99.90;;;;;;5061633;28;20038;-67
2023/09/30 06:22:53;;;;;;;12.00;6.30;;;13.30;99.90;;;;;;5000152;28;20045;-68
2023/09/30 06:25:20;;;;;;;13.32;5.82;;;13.90;99.90;;;;;;4995641;28;20045;-68
2023/09/30 06:27:47;;;;;;;10.20;5.50;;;14.40;99.90;;;;;;5072615;28;20085;-68
2023/09/30 06:30:14;;;;;;;11.38;5.75;;;15.00;99.90;;;;;;5064761;28;20041;-68
2023/09/30 06:32:40;;;;;;;13.68;6.22;;;15.50;99.90;;;;;;5068207;28;20052;-68
2023/09/30 06:35:06;;;;;;;8.52;4.72;;;15.80;99.90;;;;;;5066744;28;20034;-68
2023/09/30 06:37:32;;;;;;;8.75;5.18;;;15.80;99.90;;;;;;5068974;28;20042;-68
2023/09/30 06:39:58;;;;;;;9.45;5.32;;;15.60;99.90;;;;;;5005420;28;20161;-68
2023/09/30 06:42:27;;;;;;;9.90;5.82;;;15.50;99.90;;;;;;5067491;28;20172;-68
2023/09/30 06:44:54;;;;;;;10.55;5.28;;;15.20;99.90;;;;;;4995182;28;20038;-68
2023/09/30 06:47:20;;;;;;;9.38;5.65;;;15.10;99.90;;;;;;5003011;28;20081;-68
2023/09/30 06:49:46;;;;;;;11.38;6.18;;;14.90;99.90;;;;;;5002590;28;20048;-68
2023/09/30 06:52:13;;;;;;;9.32;5.85;;;14.80;99.90;;;;;;5000083;28;20026;-68
2023/09/30 06:54:38;;;;;;;9.40;6.25;;;14.70;99.90;;;;;;5069185;28;20042;-68
2023/09/30 06:57:04;;;;;;;12.50;6.18;;;14.80;99.90;;;;;;5003577;28;20381;-68
2023/09/30 06:59:32;;;;;;;9.02;5.47;;;15.20;99.90;;;;;;5001246;28;20034;-68
2023/09/30 07:01:57;;;;;;;11.13;5.35;;;15.60;99.90;;;;;;5068274;28;20551;-68
2023/09/30 07:04:23;;;;;;;10.50;6.10;;;16.00;99.90;;;;;;5053588;28;20042;-68
2023/09/30 07:06:48;;;;;;;11.38;6.45;;;16.20;99.90;;;;;;5067696;28;20446;-68
2023/09/30 07:09:14;;;;;;;8.63;5.95;;;16.10;99.90;;;;;;5070159;28;20537;-68
2023/09/30 07:11:39;;;;;;;13.07;6.55;;;16.00;99.90;;;;;;5070134;28;20038;-68
2023/09/30 07:14:05;;;;;;;11.30;6.22;;;16.00;99.90;;;;;;5067995;28;20042;-68
2023/09/30 07:16:30;;;;;;;13.18;5.72;;;15.90;99.90;;;;;;5067303;28;20121;-68
2023/09/30 07:18:57;;;;;;;9.02;5.45;;;16.00;99.90;;;;;;5067396;28;20054;-68
2023/09/30 07:21:22;;;;;;;12.90;5.60;;;15.70;99.90;;;;;;5065411;28;20050;-68
2023/09/30 07:23:48;;;;;;;9.38;5.50;;;15.60;99.90;;;;;;5064929;28;20041;-68
2023/09/30 07:26:14;;;;;;;9.40;5.72;;;15.50;99.90;;;;;;5068025;28;20073;-68
2023/09/30 07:28:40;;;;;;;11.68;6.40;;;15.50;99.90;;;;;;4999862;28;20046;-68
2023/09/30 07:31:06;;;;;;;12.07;6.93;;;15.40;99.90;;;;;;5000111;28;20029;-68
2023/09/30 07:33:32;;;;;;;9.48;5.47;;;15.40;99.90;;;;;;5062642;28;20073;-68
2023/09/30 07:35:57;;;;;;;9.32;6.35;;;15.30;99.90;;;;;;5064265;28;20073;-68
2023/09/30 07:38:23;;;;;;;10.73;6.05;;;15.20;99.90;;;;;;5068389;28;20042;-68
2023/09/30 07:40:49;;;;;;;11.80;6.43;;;15.10;99.90;;;;;;5065817;28;20053;-68
2023/09/30 07:43:14;;;;;;;10.73;6.63;;;15.00;99.90;;;;;;5065583;28;20095;-68
2023/09/30 07:45:40;;;;;;;10.20;5.88;;;14.90;99.90;;;;;;5001565;28;20534;-68
2023/09/30 07:48:09;;;;;;;10.32;6.57;;;14.90;99.90;;;;;;5069230;28;20050;-68
2023/09/30 07:50:35;;;;;;;13.75;7.00;;;14.90;99.90;;;;;;5069296;28;20045;-68
2023/09/30 07:53:01;;;;;;;14.82;7.03;;;14.80;99.90;;;;;;5002116;28;20034;-68
2023/09/30 07:55:26;;;;;;;9.45;6.35;;;14.80;99.90;;;;;;5068655;28;20043;-68
2023/09/30 07:57:52;;;;;;;10.30;6.43;;;14.80;99.90;;;;;;5000398;28;20095;-68
2023/09/30 08:00:21;;;;;;;9.50;6.78;;;14.80;99.90;;;;;;5067921;28;20042;-68
2023/09/30 08:02:47;;;;;;;8.88;6.18;;;14.80;99.90;;;;;;5069624;28;20061;-68
2023/09/30 08:05:12;;;;;;;11.23;6.72;;;14.90;99.90;;;;;;5064886;28;20038;-68
2023/09/30 08:07:38;;;;;;;15.63;6.90;;;14.90;99.90;;;;;;5069305;28;20431;-68
2023/09/30 08:10:05;;;;;;;13.25;6.75;;;14.90;99.90;;;;;;5065124;28;20038;-68
2023/09/30 08:12:30;;;;;;;10.40;6.68;;;14.90;99.90;;;;;;4997267;28;20073;-68
2023/09/30 08:14:56;;;;;;;14.73;7.72;;;15.00;99.90;;;;;;5070710;28;20081;-68
2023/09/30 08:17:22;;;;;;;12.48;7.32;;;14.90;99.90;;;;;;4997476;28;20041;-67
2023/09/30 08:19:50;;;;;;;10.70;6.55;;;15.00;99.90;;;;;;4999345;28;20125;-68
2023/09/30 08:22:15;;;;;;;14.40;7.38;;;15.10;99.90;;;;;;5068577;28;20042;-68
2023/09/30 08:24:41;;;;;;;11.73;7.07;;;15.10;99.90;;;;;;5065355;28;20462;-68
2023/09/30 08:27:07;;;;;;;13.13;6.60;;;15.20;99.90;;;;;;5067259;28;20050;-68
2023/09/30 08:29:36;;;;;;;11.15;6.18;;;15.30;99.90;;;;;;5065145;28;20091;-68
2023/09/30 08:32:02;;;;;;;10.38;6.07;;;15.40;99.90;;;;;;5064874;28;20073;-68
2023/09/30 08:34:28;;;;;;;11.18;6.40;;;15.40;99.90;;;;;;5065476;28;20485;-68
2023/09/30 08:36:54;;;;;;;13.50;6.40;;;15.50;99.90;;;;;;5065091;28;20124;-68
2023/09/30 08:39:20;;;;;;;9.73;6.30;;;15.60;99.90;;;;;;5063861;28;20136;-68
2023/09/30 08:41:46;;;;;;;13.68;6.28;;;15.60;99.90;;;;;;5070908;28;20038;-68
2023/09/30 08:44:12;;;;;;;12.10;6.10;;;15.60;99.90;;;;;;5064435;28;20078;-68
2023/09/30 08:46:40;;;;;;;13.65;6.53;;;15.70;99.90;;;;;;5063409;28;20046;-68
2023/09/30 08:49:06;;;;;;;13.65;6.68;;;15.80;99.90;;;;;;5043192;28;20038;-68
2023/09/30 08:51:32;;;;;;;12.52;6.50;;;15.80;99.90;;;;;;5065613;28;20048;-67
2023/09/30 08:53:59;;;;;;;10.57;6.15;;;15.90;99.90;;;;;;5051153;28;20050;-68
2023/09/30 08:56:29;;;;;;;11.82;6.35;;;16.00;99.90;;;;;;5063822;28;20133;-68
2023/09/30 08:58:59;;;;;;;8.90;5.60;;;16.10;99.90;;;;;;4996423;28;20404;-68
2023/09/30 09:03:01;;;;;;;;;;;16.20;99.90;;;;;;5108826;27;20475;-70
2023/09/30 09:05:27;;;;;;;11.55;5.82;;;16.30;99.90;;;;;;5146639;27;20020;-70
2023/09/30 09:07:52;;;;;;;10.23;5.72;;;16.40;99.90;;;;;;5115958;27;20479;-69
2023/09/30 09:10:18;;;;;;;15.52;7.03;;;16.40;99.90;;;;;;5115539;27;20036;-69
2023/09/30 09:12:55;;;;;;;11.88;7.35;;;16.50;99.90;;;;;;5114757;27;20072;-69
2023/09/30 09:15:26;;;;;;;12.68;5.82;;;16.50;99.90;;;;;;5118769;27;20054;-69
2023/09/30 09:17:52;;;;;;;11.98;5.90;;;16.60;99.90;;;;;;5147001;27;20088;-69
2023/09/30 09:20:20;;;;;;;11.40;5.22;;;16.70;99.90;;;;;;5119944;27;20043;-69
2023/09/30 09:22:48;;;;;;;10.90;5.40;;;16.80;99.90;;;;;;5113758;27;20031;-70
2023/09/30 09:25:13;;;;;;;10.88;6.00;;;16.90;99.90;;;;;;5120107;27;20393;-69
2023/09/30 09:27:39;;;;;;;9.55;6.10;;;16.90;99.90;;;;;;5112912;27;20116;-69
2023/09/30 09:30:15;;;;;;;8.88;4.78;;;17.10;99.90;;;;;;5121177;27;20034;-69
2023/09/30 09:33:03;;;;;;;11.50;5.65;;;17.10;99.90;;;;;;5116313;27;20082;-69
2023/09/30 09:35:32;;;;;;;13.13;6.20;;;17.20;99.90;;;;;;5121280;27;20449;-70
2023/09/30 09:38:04;;;;;;;13.27;6.25;;;17.20;99.90;;;;;;5148180;27;20040;-70
2023/09/30 09:40:32;;;;;;;10.68;5.30;;;17.40;99.90;;;;;;5119568;27;20046;-70
2023/09/30 09:42:58;;;;;;;10.40;5.78;;;17.50;99.90;;;;;;5114462;27;20070;-69
2023/09/30 09:45:26;;;;;;;10.20;6.45;;;17.60;99.90;;;;;;5117684;27;20043;-70
2023/09/30 09:47:53;;;;;;;10.68;6.07;;;17.60;99.90;;;;;;5112327;27;20046;-70
2023/09/30 09:50:20;;;;;;;13.23;6.85;;;17.80;99.90;;;;;;5116159;27;20415;-70
2023/09/30 09:52:50;;;;;;;7.35;4.90;;;17.90;99.90;;;;;;5113911;27;20044;-69
2023/09/30 09:55:21;;;;;;;9.95;4.75;;;18.00;99.90;;;;;;5114781;27;20049;-69
2023/09/30 09:57:49;;;;;;;12.00;6.70;;;18.20;99.90;;;;;;5151105;27;20043;-69
2023/09/30 10:00:19;;;;;;;12.82;5.25;;;18.20;99.90;;;;;;5117786;27;20118;-69
2023/09/30 10:02:48;;;;;;;9.43;5.07;;;18.40;99.90;;;;;;5112921;27;20047;-69
2023/09/30 10:05:15;;;;;;;8.93;5.57;;;18.40;99.90;;;;;;5116455;27;20039;-69
2023/09/30 10:08:06;;;;;;;7.32;4.63;;;18.60;99.90;;;;;;5114515;27;20047;-69
2023/09/30 10:10:36;;;;;;;6.65;4.07;;;18.80;99.90;;;;;;5119722;28;20083;-70
2023/09/30 10:13:03;;;;;;;6.50;4.20;;;19.00;99.90;;;;;;5111502;27;20036;-69
2023/09/30 10:15:29;;;;;;;12.07;4.57;;;19.10;99.90;;;;;;5106126;28;20039;-69
2023/09/30 10:18:11;;;;;;;12.57;5.45;;;19.30;99.90;;;;;;5135167;27;20047;-70
2023/09/30 10:20:44;;;;;;;10.60;5.05;;;19.50;99.90;;;;;;5089662;28;20044;-69
2023/09/30 10:23:26;;;;;;;7.15;4.10;;;19.60;99.90;;;;;;5107015;27;20051;-69
2023/09/30 10:26:14;;;;;;;8.85;3.17;;;19.80;99.90;;;;;;5123135;27;20032;-69
2023/09/30 10:28:49;;;;;;;7.88;4.35;;;19.90;99.90;;;;;;5100158;27;20067;-69
2023/09/30 10:31:25;;;;;;;8.50;3.65;;;20.10;99.90;;;;;;5106132;27;20040;-70
2023/09/30 10:34:00;;;;;;;7.82;3.42;;;20.30;99.90;;;;;;5104445;27;20074;-69
2023/09/30 10:36:33;;;;;;;11.27;3.53;;;20.50;99.90;;;;;;5120874;27;20088;-70
2023/09/30 10:38:59;;;;;;;10.43;3.53;;;20.70;99.90;;;;;;5106837;27;20359;-70
2023/09/30 10:41:50;;;;;;;6.72;3.63;;;20.80;99.90;;;;;;5102903;27;21740;-69
2023/09/30 10:44:29;;;;;;;9.15;4.72;;;20.80;99.90;;;;;;5103254;27;20051;-69
2023/09/30 10:47:02;;;;;;;10.57;4.07;;;20.80;99.90;;;;;;5099369;28;20059;-70
2023/09/30 10:49:28;;;;;;;8.73;3.35;;;20.80;99.90;;;;;;5100639;27;20031;-69
2023/09/30 10:51:56;;;;;;;8.38;3.90;;;20.90;99.90;;;;;;5094875;27;20067;-70
2023/09/30 10:54:30;;;;;;;7.00;2.88;;;21.20;99.90;;;;;;5099465;27;20404;-69
2023/09/30 10:56:58;;;;;;;7.47;2.10;;;21.30;99.90;;;;;;5100987;27;20668;-69
2023/09/30 10:59:27;;;;;;;9.05;1.42;;;21.50;99.90;;;;;;5132838;27;20050;-69
2023/09/30 11:01:53;;;;;;;8.05;2.28;;;21.60;99.90;;;;;;5101995;27;20606;-69
2023/09/30 11:04:19;;;;;;;6.50;1.85;;;21.60;99.90;;;;;;5102866;27;20184;-69
2023/09/30 11:06:46;;;;;;;5.82;2.13;;;21.50;99.90;;;;;;5100866;28;20108;-69
2023/09/30 11:09:19;;;;;;;6.28;1.80;;;21.30;99.90;;;;;;5100225;27;20078;-70
2023/09/30 11:11:49;;;;;;;15.27;2.40;;;21.00;99.90;;;;;;5104617;27;20065;-69
2023/09/30 11:14:21;;;;;;;6.55;2.30;;;21.00;99.90;;;;;;5104282;27;20144;-69
2023/09/30 11:16:48;;;;;;;5.82;1.75;;;21.00;99.90;;;;;;5100432;27;20185;-70
2023/09/30 11:19:15;;;;;;;8.93;2.13;;;21.10;99.90;;;;;;5097649;27;20059;-69
2023/09/30 11:21:43;;;;;;;4.18;1.35;;;21.10;99.90;;;;;;5133365;27;20043;-69
2023/09/30 11:24:09;;;;;;;6.28;1.35;;;21.20;99.90;;;;;;5102784;28;20501;-69
2023/09/30 11:26:35;;;;;;;5.57;1.77;;;21.10;99.90;;;;;;5103042;27;20043;-69
2023/09/30 11:29:18;;;;;;;3.92;1.52;;;21.00;99.90;;;;;;5130660;27;20481;-69
2023/09/30 11:31:46;;;;;;;5.57;1.17;;;20.90;99.90;;;;;;5115991;27;20096;-69
2023/09/30 11:34:12;;;;;;;4.03;1.13;;;20.70;99.90;;;;;;5135346;27;20123;-69
2023/09/30 11:36:48;;;;;;;5.95;1.55;;;20.60;99.90;;;;;;5101592;27;20071;-69
2023/09/30 11:39:28;;;;;;;4.20;1.10;;;20.40;99.90;;;;;;5126579;27;20183;-68
2023/09/30 11:41:56;;;;;;;7.40;1.52;;;20.30;99.90;;;;;;5095740;28;20032;-67
2023/09/30 11:44:23;;;;;;;3.63;1.10;;;20.40;99.90;;;;;;5135039;27;20074;-68
2023/09/30 11:47:00;;;;;;;5.95;1.98;;;20.40;99.90;;;;;;5098626;27;20043;-68
2023/09/30 11:49:34;;;;;;;4.57;1.42;;;20.40;99.90;;;;;;5096796;28;20047;-68
2023/09/30 11:52:11;;;;;;;4.97;1.65;;;20.30;99.90;;;;;;5097825;27;20048;-67
2023/09/30 11:54:44;;;;;;;6.03;1.63;;;20.40;99.90;;;;;;5099981;27;20174;-67
2023/09/30 11:57:11;;;;;;;8.73;2.92;;;20.50;99.90;;;;;;5101742;28;20520;-67
2023/09/30 11:59:40;;;;;;;7.32;1.88;;;20.60;99.90;;;;;;5095378;27;20684;-68
2023/09/30 12:02:09;;;;;;;4.60;0.95;;;20.80;99.90;;;;;;5133198;27;20451;-68
2023/09/30 12:04:36;;;;;;;8.20;1.95;;;21.10;99.90;;;;;;5091366;27;20054;-68
2023/09/30 12:07:02;;;;;;;4.25;1.10;;;21.40;99.90;;;;;;5093867;27;20035;-68
2023/09/30 12:09:28;;;;;;;3.08;1.13;;;21.60;99.90;;;;;;5094178;27;20044;-68
2023/09/30 12:11:55;;;;;;;2.95;1.20;;;21.80;99.90;;;;;;5092075;27;20055;-68
2023/09/30 12:14:21;;;;;;;6.18;1.95;;;21.90;99.90;;;;;;5091499;27;20047;-68
2023/09/30 12:16:47;;;;;;;4.40;1.40;;;22.10;99.90;;;;;;5087287;27;20603;-68
2023/09/30 12:19:15;;;;;;;4.88;1.40;;;22.10;99.90;;;;;;5119244;27;20044;-68
2023/09/30 12:21:41;;;;;;;4.25;1.23;;;22.20;99.90;;;;;;5092462;27;20051;-68
2023/09/30 12:24:09;;;;;;;5.43;1.60;;;22.20;99.90;;;;;;5071365;27;20069;-68
2023/09/30 12:26:38;;;;;;;6.03;1.70;;;22.30;99.90;;;;;;5093712;27;20051;-68
2023/09/30 12:29:05;;;;;;;3.53;1.13;;;22.40;99.90;;;;;;5089431;27;20058;-68
2023/09/30 12:31:33;;;;;;;6.30;1.42;;;22.20;99.90;;;;;;5088263;27;20085;-68
2023/09/30 12:33:59;;;;;;;5.00;1.17;;;22.20;99.90;;;;;;5089751;27;20067;-68
2023/09/30 12:36:25;;;;;;;3.88;1.50;;;22.30;99.90;;;;;;5102830;27;20432;-68
2023/09/30 12:38:51;;;;;;;3.22;1.00;;;22.30;99.90;;;;;;5097475;27;20044;-68
2023/09/30 12:41:19;;;;;;;5.47;1.50;;;22.30;99.90;;;;;;5103505;27;20032;-68
2023/09/30 12:43:45;;;;;;;5.97;1.38;;;22.40;99.90;;;;;;5099743;27;20072;-68